Time;durP1;ratioP1;P1;durP2;ratioP2;P2;SDS_P1;SDS_P2;PMS_P1;PMS_P2;Temp;Humidity;BMP_temperature;BMP_pressure;BME280_temperature;BME280_humidity;BME280_pressure;Samples;Min_cycle;Max_cycle;Signal;HPM_P1;HPM_P2
2023/04/09 00:00:33;;;;;;;48.00;31.60;;;;;;;6.95;70.00;99684.98;219825;180;138109;-86
2023/04/09 00:05:56;;;;;;;45.40;31.40;;;;;;;6.90;70.08;99685.33;222356;183;137432;-85
2023/04/09 00:11:00;;;;;;;47.70;30.30;;;;;;;6.94;70.23;99682.02;223894;183;145688;-87
2023/04/09 00:16:04;;;;;;;50.80;32.30;;;;;;;6.97;70.24;99680.81;222713;183;141219;-85
2023/04/09 00:21:07;;;;;;;52.00;32.10;;;;;;;6.99;70.18;99678.11;222448;183;137294;-84
2023/04/09 00:26:10;;;;;;;50.30;32.60;;;;;;;7.01;70.26;99681.23;223813;183;145892;-83
2023/04/09 00:31:15;;;;;;;51.70;32.90;;;;;;;7.03;70.04;99678.66;223799;183;138460;-83
2023/04/09 00:36:18;;;;;;;52.40;34.90;;;;;;;6.97;70.56;99679.77;221268;183;137114;-83
2023/04/09 00:41:21;;;;;;;52.00;33.40;;;;;;;7.00;71.22;99680.19;223983;183;145821;-83
2023/04/09 00:46:25;;;;;;;51.40;32.90;;;;;;;7.01;70.97;99676.98;223364;184;138943;-89
2023/04/09 00:51:28;;;;;;;52.30;32.90;;;;;;;6.99;70.99;99674.56;219872;182;136548;-87
2023/04/09 00:56:32;;;;;;;49.50;31.80;;;;;;;7.07;71.15;99677.09;221302;182;145280;-87
2023/04/09 01:01:35;;;;;;;53.10;33.90;;;;;;;7.09;70.92;99673.13;221252;183;138417;-87
2023/04/09 01:07:12;;;;;;;51.90;34.50;;;;;;;7.14;71.02;99671.73;223753;183;136789;-88
2023/04/09 01:12:27;;;;;;;53.10;34.30;;;;;;;7.22;71.04;99669.30;220587;183;145496;-90
2023/04/09 01:17:55;;;;;;;50.60;32.60;;;;;;;7.26;71.04;99665.64;223924;182;138667;-88
2023/04/09 01:23:34;;;;;;;52.50;34.10;;;;;;;7.26;70.57;99663.86;222945;183;136499;-87
2023/04/09 01:28:40;;;;;;;53.90;33.90;;;;;;;7.23;70.85;99662.57;223785;183;145785;-87
2023/04/09 01:33:45;;;;;;;57.30;36.00;;;;;;;7.19;71.01;99670.83;223734;183;138167;-88
2023/04/09 01:57:17;;;;;;;55.20;36.50;;;;;;;7.40;70.53;99675.30;223816;184;137044;-73
2023/04/09 02:03:28;;;;;;;52.10;36.60;;;;;;;7.38;70.33;99681.03;223631;185;145659;-73
2023/04/09 02:28:08;;;;;;;56.80;35.50;;;;;;;7.13;70.71;99683.93;221796;194;666328;-68
2023/04/09 02:40:30;;;;;;;56.20;34.10;;;;;;;7.14;70.59;99679.67;222541;192;143351;-68
2023/04/09 02:45:40;;;;;;;51.90;34.70;;;;;;;7.12;70.42;99673.02;222979;188;138643;-68
2023/04/09 02:52:02;;;;;;;48.70;34.00;;;;;;;7.10;70.39;99673.64;223165;189;136182;-69
2023/04/09 02:57:56;;;;;;;57.00;36.00;;;;;;;7.06;70.36;99675.38;223299;188;143681;-68
2023/04/09 03:03:21;;;;;;;52.90;36.00;;;;;;;7.04;70.68;99678.96;223323;187;138271;-68
2023/04/09 03:09:51;;;;;;;53.60;35.70;;;;;;;7.06;70.89;99674.68;223376;187;136926;-68
2023/04/09 04:01:57;;;;;;;52.70;33.90;;;;;;;7.30;70.30;99673.56;220150;220;138467;-72
2023/04/09 04:07:44;;;;;;;;;;;;;;;;;;;;;
2023/04/09 04:14:12;;;;;;;52.80;33.80;;;;;;;7.14;70.60;99678.09;221430;189;143662;-71
2023/04/09 04:20:08;;;;;;;133.00;84.70;;;;;;;7.06;71.04;99677.27;222585;184;139806;-71
2023/04/09 04:26:09;;;;;;;;;;;;;;;;;;;;;
2023/04/09 04:43:02;;;;;;;47.80;32.80;;;;;;;7.27;70.22;99687.80;220526;193;686448;-73
2023/04/09 04:48:06;;;;;;;44.90;30.80;;;;;;;7.24;70.29;99690.73;223409;187;136059;-71
2023/04/09 04:53:23;;;;;;;47.80;31.50;;;;;;;7.27;70.22;99692.77;223830;183;144340;-72
2023/04/09 04:58:46;;;;;;;47.70;32.40;;;;;;;7.28;70.26;99701.39;223784;183;138362;-70
2023/04/09 05:04:23;;;;;;;42.80;29.60;;;;;;;7.30;70.37;99697.59;223886;184;136152;-71
2023/04/09 05:23:11;;;;;;;43.20;29.40;;;;;;;7.52;69.96;99708.05;221893;191;690312;-69
2023/04/09 05:35:59;;;;;;;48.50;32.90;;;;;;;7.63;69.69;99709.02;222794;203;143509;-69
2023/04/09 05:48:26;;;;;;;47.20;31.20;;;;;;;7.63;69.51;99711.70;223533;186;137616;-67
2023/04/09 05:54:31;;;;;;;;;;;;;;;;;;;;;
2023/04/09 06:11:15;;;;;;;44.40;29.40;;;;;;;7.89;69.61;99725.84;223636;186;144683;-67
2023/04/09 06:30:35;;;;;;;49.20;34.90;;;;;;;8.17;68.88;99731.77;222727;192;145672;-67
2023/04/09 06:36:10;;;;;;;51.60;35.60;;;;;;;8.22;68.74;99736.15;222827;190;138437;-64
2023/04/09 06:42:23;;;;;;;53.30;36.40;;;;;;;8.18;68.76;99739.30;219273;193;666654;-82
2023/04/09 06:47:37;;;;;;;52.80;35.10;;;;;;;8.20;68.96;99744.72;220684;184;136464;-80
2023/04/09 06:52:40;;;;;;;51.80;34.90;;;;;;;8.31;69.02;99744.98;221804;184;143352;-77
2023/04/09 06:57:44;;;;;;;46.10;32.50;;;;;;;8.37;68.91;99744.02;223731;184;256668;-77
2023/04/09 07:02:47;;;;;;;50.70;34.00;;;;;;;8.46;69.02;99748.81;222301;183;136594;-83
2023/04/09 07:07:51;;;;;;;42.10;28.60;;;;;;;8.55;68.73;99746.83;223690;183;144871;-81
2023/04/09 07:12:54;;;;;;;46.10;30.40;;;;;;;8.77;68.39;99749.79;223791;183;138918;-81
2023/04/09 07:17:58;;;;;;;48.20;32.70;;;;;;;9.00;67.97;99752.67;223799;183;137157;-81
2023/04/09 07:23:02;;;;;;;45.80;33.10;;;;;;;9.19;67.59;99750.56;223748;184;143407;-80
2023/04/09 07:28:05;;;;;;;49.40;32.00;;;;;;;9.32;67.24;99748.59;223785;183;139417;-79
2023/04/09 07:33:09;;;;;;;44.50;32.50;;;;;;;9.51;67.01;99752.83;223749;183;136403;-80
2023/04/09 07:38:19;;;;;;;43.40;31.70;;;;;;;9.68;66.57;99753.83;223669;183;145645;-78
2023/04/09 07:43:23;;;;;;;37.50;26.80;;;;;;;9.90;66.82;99749.95;223638;184;141175;-78
2023/04/09 07:48:28;;;;;;;35.70;25.30;;;;;;;10.11;65.56;99744.86;223924;183;136903;-81
2023/04/09 07:53:32;;;;;;;39.00;26.50;;;;;;;10.19;65.14;99744.27;223783;182;145920;-80
2023/04/09 07:58:41;;;;;;;34.60;24.80;;;;;;;10.41;65.12;99746.25;223671;183;137824;-66
2023/04/09 08:03:46;;;;;;;34.30;24.90;;;;;;;10.52;63.64;99748.00;223754;183;136929;-68
2023/04/09 08:08:52;;;;;;;30.60;23.70;;;;;;;10.58;63.32;99747.19;223810;183;147115;-68
2023/04/09 08:13:56;;;;;;;34.00;24.60;;;;;;;10.59;62.74;99747.11;223819;183;138376;-67
2023/04/09 08:18:59;;;;;;;49.40;33.40;;;;;;;10.70;62.81;99744.76;223710;183;137290;-69
2023/04/09 08:24:04;;;;;;;35.30;25.80;;;;;;;10.82;62.63;99747.34;223699;183;145421;-68
2023/04/09 08:29:13;;;;;;;34.00;24.50;;;;;;;11.08;62.72;99743.71;223717;183;138210;-65
2023/04/09 08:34:46;;;;;;;31.60;22.90;;;;;;;11.28;61.63;99743.88;223494;186;137025;-64
2023/04/09 08:43:09;;;;;;;29.00;21.30;;;;;;;11.42;61.09;99737.58;219837;193;665923;-66
2023/04/09 08:48:17;;;;;;;27.70;20.70;;;;;;;11.42;61.03;99745.95;223629;183;137269;-65
2023/04/09 08:53:22;;;;;;;27.90;20.30;;;;;;;11.48;60.61;99747.91;223624;183;230365;-65
2023/04/09 08:58:25;;;;;;;27.00;19.30;;;;;;;11.54;60.24;99747.44;223778;183;138423;-69
2023/04/09 09:03:28;;;;;;;27.10;19.00;;;;;;;11.56;60.35;99744.29;223893;183;136445;-68
2023/04/09 09:08:31;;;;;;;26.50;20.80;;;;;;;11.72;60.03;99745.41;223759;183;143347;-68
2023/04/09 09:13:34;;;;;;;28.60;20.20;;;;;;;11.83;60.37;99748.33;223789;184;138985;-71
2023/04/09 09:18:42;;;;;;;26.70;19.40;;;;;;;11.87;59.53;99746.73;223798;184;136998;-68
2023/04/09 09:23:47;;;;;;;21.30;17.10;;;;;;;11.89;59.83;99744.84;223812;183;143469;-70
2023/04/09 09:28:50;;;;;;;22.00;16.80;;;;;;;11.95;60.02;99751.77;223868;182;138439;-68
2023/04/09 09:33:55;;;;;;;21.00;16.60;;;;;;;12.00;59.55;99750.64;223744;182;137964;-69
2023/04/09 09:43:00;;;;;;;20.80;15.60;;;;;;;12.11;59.29;99743.78;219781;192;689287;-69
2023/04/09 09:48:04;;;;;;;18.60;14.60;;;;;;;12.36;59.34;99740.19;223397;186;136419;-70
2023/04/09 09:53:10;;;;;;;18.80;14.90;;;;;;;12.55;59.12;99730.86;223321;186;144152;-67
2023/04/09 09:58:37;;;;;;;18.90;14.70;;;;;;;12.50;58.06;99732.42;223583;185;138495;-65
2023/04/09 10:03:42;;;;;;;16.90;13.30;;;;;;;12.52;57.34;99728.23;223503;186;137179;-65
2023/04/09 10:08:48;;;;;;;16.60;13.10;;;;;;;12.74;57.30;99724.60;223528;185;143838;-65
2023/04/09 10:13:58;;;;;;;12.70;11.20;;;;;;;13.04;57.17;99717.58;223571;185;138822;-66
2023/04/09 10:19:02;;;;;;;116.00;82.10;;;;;;;13.43;55.92;99714.48;223677;184;136764;-67
2023/04/09 10:24:07;;;;;;;17.70;14.40;;;;;;;13.52;55.50;99713.75;223772;184;143868;-66
2023/04/09 10:29:13;;;;;;;14.90;12.00;;;;;;;13.61;54.79;99712.69;223909;182;138814;-65
2023/04/09 10:34:20;;;;;;;18.10;13.80;;;;;;;13.54;54.92;99713.98;223961;181;136962;-65
2023/04/09 10:39:28;;;;;;;18.20;13.50;;;;;;;13.42;54.92;99710.83;223864;182;145408;-68
2023/04/09 10:44:34;;;;;;;14.90;12.30;;;;;;;13.28;54.96;99707.09;223918;182;138396;-66
2023/04/09 10:49:41;;;;;;;15.10;12.90;;;;;;;13.23;54.61;99704.13;224012;182;137980;-65
2023/04/09 10:54:46;;;;;;;17.10;13.00;;;;;;;13.20;54.44;99705.76;223938;182;145041;-63
2023/04/09 10:59:51;;;;;;;15.10;12.10;;;;;;;13.23;53.88;99699.84;223862;182;138284;-63
2023/04/09 11:05:05;;;;;;;14.70;11.80;;;;;;;13.33;54.04;99699.99;223888;182;136898;-67
2023/04/09 11:10:15;;;;;;;15.60;12.00;;;;;;;13.42;54.01;99699.05;223852;182;145255;-66
2023/04/09 11:15:20;;;;;;;29.00;22.50;;;;;;;13.51;53.96;99701.36;223834;182;138384;-64
2023/04/09 11:20:24;;;;;;;16.10;13.20;;;;;;;13.68;53.52;99691.85;223942;182;138008;-64
2023/04/09 11:42:55;;;;;;;15.70;12.80;;;;;;;13.64;53.73;99690.20;218284;190;666807;-83
2023/04/09 11:48:01;;;;;;;14.40;11.80;;;;;;;13.65;52.76;99694.23;223763;183;136562;-74
2023/04/09 11:53:18;;;;;;;13.20;11.50;;;;;;;13.60;51.76;99697.77;223186;184;143923;-81
2023/04/09 11:58:32;;;;;;;102.50;77.30;;;;;;;13.52;53.36;99698.81;221636;184;138453;-87
2023/04/09 12:03:40;;;;;;;15.10;12.30;;;;;;;13.56;53.06;99699.05;221010;182;136498;-80
2023/04/09 12:08:58;;;;;;;15.00;12.60;;;;;;;13.55;52.41;99701.46;223570;181;143369;-81
2023/04/09 12:14:03;;;;;;;15.70;12.40;;;;;;;13.52;52.27;99701.29;223752;182;140191;-86
2023/04/09 12:19:26;;;;;;;14.70;12.10;;;;;;;13.59;52.16;99707.80;223865;179;139148;-62
2023/04/09 12:24:40;;;;;;;484.70;363.00;;;;;;;13.71;52.18;99703.28;223835;183;143722;-63
2023/04/09 12:29:47;;;;;;;22.00;17.30;;;;;;;13.84;52.12;99699.25;223929;182;139371;-61
2023/04/09 12:35:43;;;;;;;15.50;12.60;;;;;;;13.95;51.88;99693.48;223775;182;137101;-62
2023/04/09 12:42:05;;;;;;;14.70;13.10;;;;;;;13.97;51.42;99692.85;223730;184;144893;-63
2023/04/09 12:47:55;;;;;;;16.20;13.60;;;;;;;13.99;50.90;99694.13;223669;183;138316;-63
2023/04/09 12:53:07;;;;;;;15.90;12.50;;;;;;;13.99;50.98;99691.48;223698;185;137337;-63
2023/04/09 12:59:28;;;;;;;139.00;103.70;;;;;;;14.14;52.05;99687.07;223521;184;146086;-62
2023/04/09 13:04:43;;;;;;;16.70;13.40;;;;;;;14.20;50.81;99693.44;223555;185;139152;-62
2023/04/09 13:09:51;;;;;;;14.30;12.00;;;;;;;14.12;50.65;99689.56;223697;183;137157;-62
2023/04/09 13:15:10;;;;;;;15.00;12.20;;;;;;;14.03;50.42;99684.80;223791;184;145410;-63
2023/04/09 13:20:47;;;;;;;14.50;12.50;;;;;;;13.96;50.43;99685.44;223784;185;140748;-63
2023/04/09 13:26:44;;;;;;;14.50;12.80;;;;;;;13.94;50.92;99683.75;223466;186;137079;-62
2023/04/09 13:32:14;;;;;;;;;;;;;;;13.87;51.01;99686.93;223573;184;145692;-63
2023/04/09 13:43:08;;;;;;;74.00;56.70;;;;;;;13.77;50.74;99680.61;219722;193;2686978;-68
2023/04/09 13:48:12;;;;;;;16.90;13.90;;;;;;;13.79;50.88;99682.46;223623;183;137250;-63
2023/04/09 13:53:19;;;;;;;242.70;170.70;;;;;;;13.77;50.93;99685.05;223575;185;143631;-65
2023/04/09 13:58:22;;;;;;;18.80;15.00;;;;;;;13.80;50.58;99679.88;223858;214;139347;-65
2023/04/09 14:03:26;;;;;;;11.00;9.80;;;;;;;13.76;49.52;99677.79;223850;181;136625;-64
2023/04/09 14:08:30;;;;;;;12.30;10.10;;;;;;;13.75;48.84;99677.53;223724;182;143407;-66
2023/04/09 14:13:33;;;;;;;13.10;10.10;;;;;;;13.73;48.91;99678.84;223694;181;139804;-64
2023/04/09 14:18:38;;;;;;;111.70;80.20;;;;;;;13.74;49.08;99675.08;223768;181;136265;-65
2023/04/09 14:23:42;;;;;;;14.40;11.90;;;;;;;13.79;49.08;99671.88;223725;182;143705;-64
2023/04/09 14:28:46;;;;;;;12.80;10.80;;;;;;;13.79;48.90;99663.70;223719;181;138415;-63
2023/04/09 14:33:51;;;;;;;12.50;10.50;;;;;;;13.81;49.02;99666.25;223647;181;137386;-63
2023/04/09 14:38:55;;;;;;;106.80;71.90;;;;;;;13.79;49.38;99665.33;223683;215;145233;-65
2023/04/09 14:44:00;;;;;;;73.60;54.90;;;;;;;13.87;50.66;99663.91;223811;183;138628;-66
2023/04/09 14:49:04;;;;;;;18.40;14.80;;;;;;;13.96;49.69;99659.17;223700;181;137265;-64
2023/04/09 14:54:07;;;;;;;12.70;11.00;;;;;;;13.99;49.25;99661.17;223595;182;145184;-64
2023/04/09 14:59:11;;;;;;;14.40;11.30;;;;;;;13.98;48.87;99657.63;223693;181;139088;-66
2023/04/09 15:04:18;;;;;;;15.10;11.40;;;;;;;13.96;48.61;99660.23;223645;181;137134;-67
2023/04/09 15:09:22;;;;;;;13.40;11.40;;;;;;;13.94;48.81;99657.14;223886;181;145289;-65
2023/04/09 15:14:28;;;;;;;14.10;11.80;;;;;;;13.94;49.09;99655.39;223666;214;138438;-63
2023/04/09 15:19:39;;;;;;;19.00;14.10;;;;;;;13.95;49.76;99653.38;222937;181;137461;-65
2023/04/09 15:24:50;;;;;;;16.50;13.90;;;;;;;13.94;50.80;99655.54;222990;181;145161;-66
2023/04/09 15:29:54;;;;;;;17.40;14.90;;;;;;;13.95;51.30;99653.73;223580;215;138636;-64
2023/04/09 15:34:59;;;;;;;79.00;66.40;;;;;;;13.92;52.18;99650.85;223628;181;137592;-64
2023/04/09 15:40:03;;;;;;;25.80;19.80;;;;;;;14.04;52.37;99646.72;223640;180;145724;-65
2023/04/09 15:45:07;;;;;;;18.00;14.70;;;;;;;14.01;51.73;99648.50;223819;182;138200;-64
2023/04/09 15:50:11;;;;;;;18.30;13.80;;;;;;;13.95;51.78;99649.96;223697;181;137401;-69
2023/04/09 15:55:15;;;;;;;18.70;13.60;;;;;;;13.88;51.79;99648.45;223581;181;145646;-65
2023/04/09 16:00:20;;;;;;;16.30;12.90;;;;;;;13.81;51.66;99651.27;223688;181;139763;-64
2023/04/09 16:05:26;;;;;;;17.00;14.30;;;;;;;13.74;51.46;99653.16;223616;181;138059;-65
2023/04/09 16:10:29;;;;;;;15.70;13.50;;;;;;;13.63;51.57;99657.77;223819;181;147243;-65
2023/04/09 16:15:34;;;;;;;17.70;13.00;;;;;;;13.56;51.75;99661.48;223913;181;139416;-65
2023/04/09 16:20:37;;;;;;;15.40;13.40;;;;;;;13.47;51.86;99666.65;223745;211;136648;-64
2023/04/09 16:25:41;;;;;;;16.60;13.40;;;;;;;13.39;52.03;99669.28;223666;180;145172;-64
2023/04/09 16:30:49;;;;;;;126.90;85.80;;;;;;;13.37;53.03;99667.29;223550;181;139770;-63
2023/04/09 16:35:59;;;;;;;17.80;15.20;;;;;;;13.40;52.96;99663.71;223603;181;137565;-66
2023/04/09 16:41:03;;;;;;;17.30;13.70;;;;;;;13.31;52.80;99664.10;223971;180;145701;-65
2023/04/09 16:46:09;;;;;;;16.90;14.40;;;;;;;13.22;53.09;99667.50;223588;181;139260;-64
2023/04/09 16:51:13;;;;;;;16.80;14.30;;;;;;;13.14;53.13;99667.45;223819;182;137150;-67
2023/04/09 16:56:17;;;;;;;18.70;14.10;;;;;;;13.08;53.55;99670.70;223696;182;145723;-67
2023/04/09 17:01:20;;;;;;;18.30;14.70;;;;;;;13.01;53.81;99672.38;223495;185;139160;-67
2023/04/09 17:06:26;;;;;;;51.70;43.10;;;;;;;12.95;54.50;99674.52;223535;181;137401;-64
2023/04/09 17:11:31;;;;;;;20.70;16.80;;;;;;;12.94;54.38;99678.52;223754;181;146765;-65
2023/04/09 17:16:36;;;;;;;19.70;14.90;;;;;;;12.89;54.19;99677.89;223532;180;139418;-64
2023/04/09 17:21:44;;;;;;;18.10;14.40;;;;;;;12.83;54.34;99679.36;223497;181;138217;-66
2023/04/09 17:26:48;;;;;;;17.30;14.50;;;;;;;12.76;54.56;99686.00;223748;182;145247;-65
2023/04/09 17:31:52;;;;;;;18.60;15.10;;;;;;;12.70;54.76;99693.31;223738;180;138941;-66
2023/04/09 17:36:59;;;;;;;100.30;77.00;;;;;;;12.68;55.65;99697.36;224214;215;137235;-66
2023/04/09 17:42:07;;;;;;;20.00;15.90;;;;;;;12.73;56.59;99702.91;223920;182;146220;-69
2023/04/09 17:47:11;;;;;;;23.30;17.40;;;;;;;12.65;56.15;99704.84;223526;181;139203;-65
2023/04/09 17:52:23;;;;;;;20.20;15.70;;;;;;;12.52;56.48;99712.39;223789;181;137053;-64
2023/04/09 17:57:27;;;;;;;20.20;15.60;;;;;;;12.41;56.74;99717.10;223668;184;147762;-65
2023/04/09 18:02:35;;;;;;;22.40;16.60;;;;;;;12.33;57.21;99726.32;223680;181;138504;-65
2023/04/09 18:07:40;;;;;;;21.10;16.90;;;;;;;12.27;57.42;99730.39;223652;181;137430;-66
2023/04/09 18:12:56;;;;;;;53.90;39.40;;;;;;;12.23;57.79;99731.33;224117;181;145332;-63
2023/04/09 18:18:08;;;;;;;31.10;22.00;;;;;;;12.31;58.29;99731.90;223786;183;139208;-68
2023/04/09 18:23:30;;;;;;;23.70;18.10;;;;;;;12.31;57.60;99732.48;223540;183;138080;-64
2023/04/09 18:28:36;;;;;;;22.40;18.30;;;;;;;12.20;57.75;99737.90;223677;181;147476;-64
2023/04/09 18:33:39;;;;;;;25.70;18.50;;;;;;;12.09;58.06;99745.80;223897;181;141416;-65
2023/04/09 18:38:47;;;;;;;23.70;17.50;;;;;;;12.01;58.25;99750.19;223651;183;137248;-67
2023/04/09 18:43:56;;;;;;;26.90;18.40;;;;;;;11.93;58.69;99757.04;223804;182;145311;-64
2023/04/09 18:49:00;;;;;;;27.70;18.10;;;;;;;11.85;59.06;99757.66;223727;182;138523;-64
2023/04/09 18:54:08;;;;;;;22.90;17.40;;;;;;;11.78;59.30;99764.27;223865;181;137588;-63
2023/04/09 18:59:15;;;;;;;24.80;18.00;;;;;;;11.72;59.62;99768.30;223748;180;145347;-66
2023/04/09 19:04:19;;;;;;;26.90;18.80;;;;;;;11.66;59.90;99772.23;223596;181;139037;-65
2023/04/09 19:09:26;;;;;;;31.40;19.90;;;;;;;11.61;60.13;99767.84;223831;214;137274;-63
2023/04/09 19:14:35;;;;;;;37.40;22.10;;;;;;;11.60;60.15;99769.67;223803;181;145524;-65
2023/04/09 19:19:39;;;;;;;126.60;91.10;;;;;;;11.66;60.78;99771.31;224024;182;138393;-64
2023/04/09 19:24:44;;;;;;;36.00;23.00;;;;;;;11.73;60.80;99779.30;223872;181;137306;-64
2023/04/09 19:30:22;;;;;;;30.90;20.80;;;;;;;11.65;60.67;99779.16;223933;181;145310;-64
2023/04/09 19:43:08;;;;;;;28.30;21.20;;;;;;;11.51;61.51;99780.84;219823;193;690527;-67
2023/04/09 19:48:22;;;;;;;32.90;22.40;;;;;;;11.43;61.55;99779.15;220743;186;136678;-64
2023/04/09 22:05:33;;;;;;;27.50;20.80;;;;;;;10.80;63.47;99798.21;220110;189;666152;-65
2023/04/09 22:10:37;;;;;;;34.10;21.60;;;;;;;10.81;63.59;99797.65;223449;186;136702;-64
2023/04/09 22:15:41;;;;;;;31.60;22.80;;;;;;;10.84;63.84;99794.81;223537;185;144295;-66
2023/04/09 22:21:49;;;;;;;33.40;22.90;;;;;;;10.86;63.88;99798.45;223919;181;138362;-66
2023/04/09 22:26:39;;;;;;;32.00;23.10;;;;;;;10.83;64.21;99795.92;223908;181;136742;-66
2023/04/09 22:31:44;;;;;;;33.80;22.60;;;;;;;10.84;64.27;99790.40;223974;180;144090;-65
2023/04/09 22:36:49;;;;;;;29.40;21.40;;;;;;;10.83;64.41;99793.10;223990;180;138523;-64
2023/04/09 22:43:00;;;;;;;28.60;21.70;;;;;;;10.82;64.58;99795.46;219946;192;665645;-67
2023/04/09 22:48:06;;;;;;;31.10;22.60;;;;;;;10.79;64.71;99797.55;221172;184;137256;-69
2023/04/09 22:53:10;;;;;;;;;;;;;;;10.77;64.65;99795.00;222765;183;145293;-66
2023/04/09 22:58:14;;;;;;;33.40;23.40;;;;;;;10.74;64.82;99793.39;223805;183;139203;-68
2023/04/09 23:03:18;;;;;;;34.80;23.90;;;;;;;10.70;64.83;99792.16;223807;183;137257;-65
2023/04/09 23:08:22;;;;;;;34.60;24.40;;;;;;;10.63;64.90;99791.43;223697;183;143251;-67
2023/04/09 23:13:26;;;;;;;31.90;22.50;;;;;;;10.62;64.92;99790.94;223676;184;140209;-67
2023/04/09 23:18:31;;;;;;;37.20;23.80;;;;;;;10.66;64.86;99793.80;223892;181;137925;-69
2023/04/09 23:23:35;;;;;;;34.10;23.50;;;;;;;10.77;64.68;99793.63;223862;182;143569;-67
2023/04/09 23:28:39;;;;;;;34.20;24.40;;;;;;;10.78;64.55;99792.32;223832;181;138500;-64
2023/04/09 23:33:43;;;;;;;41.10;24.60;;;;;;;10.68;64.45;99791.94;223933;181;136985;-65
2023/04/09 23:39:02;;;;;;;34.40;24.10;;;;;;;10.56;64.62;99793.21;223874;181;147395;-68
2023/04/09 23:44:06;;;;;;;35.30;24.30;;;;;;;10.47;64.91;99787.98;223886;182;138338;-67
2023/04/09 23:49:10;;;;;;;37.50;24.00;;;;;;;10.51;64.73;99781.95;223920;181;137365;-70
2023/04/09 23:54:17;;;;;;;35.90;25.60;;;;;;;10.52;64.41;99776.94;223796;182;147306;-67
2023/04/09 23:59:21;;;;;;;36.10;24.60;;;;;;;10.50;64.31;99774.89;223866;182;138913;-67
